createdAt,value
2019-05-23T00:01:00.842Z,15.50
2019-05-23T00:03:37.612Z,15.50
2019-05-23T00:06:10.742Z,15.40
2019-05-23T00:08:40.936Z,15.40
2019-05-23T00:11:29.178Z,15.30
2019-05-23T00:13:57.707Z,15.30
2019-05-23T00:16:28.726Z,15.30
2019-05-23T00:18:58.572Z,15.20
2019-05-23T00:21:28.037Z,15.20
2019-05-23T00:23:58.148Z,15.20
2019-05-23T00:26:27.625Z,15.10
2019-05-23T00:29:09.555Z,15.10
2019-05-23T00:31:41.039Z,15.10
2019-05-23T00:34:11.989Z,15.00
2019-05-23T00:36:42.027Z,15.00
2019-05-23T00:39:11.799Z,15.00
2019-05-23T00:41:40.855Z,14.90
2019-05-23T00:44:10.206Z,14.90
2019-05-23T00:46:39.499Z,14.80
2019-05-23T00:49:08.936Z,14.80
2019-05-23T00:51:38.112Z,14.80
2019-05-23T00:54:07.149Z,14.80
2019-05-23T00:56:37.201Z,14.80
2019-05-23T00:59:05.948Z,14.80
2019-05-23T01:01:35.042Z,14.80
2019-05-23T01:04:04.222Z,14.70
2019-05-23T01:06:34.338Z,14.70
2019-05-23T01:09:03.410Z,14.70
2019-05-23T01:11:33.336Z,14.70
2019-05-23T01:14:02.212Z,14.60
2019-05-23T01:16:32.691Z,14.60
2019-05-23T01:19:01.134Z,14.60
2019-05-23T01:21:37.305Z,14.60
2019-05-23T01:24:07.414Z,14.60
2019-05-23T01:26:36.429Z,14.60
2019-05-23T01:29:06.188Z,14.60
2019-05-23T01:31:36.542Z,14.60
2019-05-23T01:34:05.562Z,14.60
2019-05-23T01:36:34.640Z,14.60
2019-05-23T01:39:04.296Z,14.60
2019-05-23T01:41:34.309Z,14.60
2019-05-23T01:44:03.935Z,14.60
2019-05-23T01:46:33.695Z,14.60
2019-05-23T01:49:02.588Z,14.50
2019-05-23T01:51:32.610Z,14.50
2019-05-23T01:54:02.933Z,14.50
2019-05-23T01:56:31.929Z,14.50
2019-05-23T01:59:03.927Z,14.50
2019-05-23T02:01:32.855Z,14.50
2019-05-23T02:04:02.329Z,14.50
2019-05-23T02:06:31.725Z,14.50
2019-05-23T02:09:01.217Z,14.40
2019-05-23T02:11:31.225Z,14.40
2019-05-23T02:14:00.341Z,14.40
2019-05-23T02:16:29.334Z,14.30
2019-05-23T02:18:58.491Z,14.30
2019-05-23T02:21:28.454Z,14.30
2019-05-23T02:23:57.563Z,14.30
2019-05-23T02:26:26.781Z,14.20
2019-05-23T02:28:56.137Z,14.20
2019-05-23T02:31:24.867Z,14.20
2019-05-23T02:33:53.883Z,14.20
2019-05-23T02:36:23.337Z,14.20
2019-05-23T02:38:53.529Z,14.20
2019-05-23T02:41:28.170Z,14.10
2019-05-23T02:43:58.294Z,14.10
2019-05-23T02:46:31.953Z,14.10
2019-05-23T02:49:08.454Z,14.00
2019-05-23T02:51:38.495Z,14.00
2019-05-23T02:54:09.590Z,14.00
2019-05-23T02:56:38.709Z,14.00
2019-05-23T02:59:10.893Z,14.00
2019-05-23T03:01:46.697Z,14.00
2019-05-23T03:04:17.251Z,14.00
2019-05-23T03:06:46.193Z,14.00
2019-05-23T03:09:16.650Z,14.00
2019-05-23T03:11:49.966Z,14.00
2019-05-23T03:14:19.151Z,13.90
2019-05-23T03:16:52.255Z,13.90
2019-05-23T03:19:27.765Z,13.90
2019-05-23T03:21:58.305Z,13.90
2019-05-23T03:24:28.840Z,13.80
2019-05-23T03:27:01.389Z,13.80
2019-05-23T03:29:32.582Z,13.80
2019-05-23T03:32:03.122Z,13.80
2019-05-23T03:34:35.982Z,13.80
2019-05-23T03:37:05.747Z,13.80
2019-05-23T03:39:34.823Z,13.90
2019-05-23T03:42:04.206Z,13.90
2019-05-23T03:44:33.993Z,13.90
2019-05-23T03:47:04.102Z,13.90
2019-05-23T03:49:34.401Z,13.90
2019-05-23T03:52:04.604Z,13.90
2019-05-23T03:54:33.060Z,13.80
2019-05-23T03:57:01.737Z,13.80
2019-05-23T03:59:31.397Z,13.90
2019-05-23T04:02:01.707Z,13.90
2019-05-23T04:04:30.307Z,13.90
2019-05-23T04:06:59.712Z,13.90
2019-05-23T04:09:28.487Z,13.80
2019-05-23T04:11:58.365Z,13.80
2019-05-23T04:14:27.794Z,13.80
2019-05-23T04:16:56.608Z,13.80
2019-05-23T04:19:25.430Z,13.80
2019-05-23T04:21:54.575Z,13.80
2019-05-23T04:24:23.488Z,13.80
2019-05-23T04:26:52.303Z,13.80
2019-05-23T04:29:20.854Z,13.90
2019-05-23T04:32:06.128Z,13.90
2019-05-23T04:34:20.236Z,13.90
2019-05-23T04:36:49.218Z,13.90
2019-05-23T04:39:18.043Z,13.90
2019-05-23T04:41:46.624Z,14.00
2019-05-23T04:44:16.975Z,14.00
2019-05-23T04:46:45.486Z,14.10
2019-05-23T04:49:14.573Z,14.10
2019-05-23T04:51:43.254Z,14.20
2019-05-23T04:54:12.271Z,14.20
2019-05-23T04:56:41.496Z,14.30
2019-05-23T04:59:11.511Z,14.30
2019-05-23T05:01:40.325Z,14.40
2019-05-23T05:04:09.119Z,14.40
2019-05-23T05:06:37.619Z,14.50
2019-05-23T05:09:08.714Z,14.60
2019-05-23T05:11:37.162Z,14.70
2019-05-23T05:14:06.266Z,14.70
2019-05-23T05:16:34.946Z,14.80
2019-05-23T05:19:03.787Z,14.90
2019-05-23T05:21:32.991Z,15.00
2019-05-23T05:24:01.525Z,15.10
2019-05-23T05:26:30.242Z,15.20
2019-05-23T05:28:59.062Z,15.30
2019-05-23T05:31:27.682Z,15.30
2019-05-23T05:33:56.560Z,15.40
2019-05-23T05:36:25.225Z,15.50
2019-05-23T05:38:54.136Z,15.60
2019-05-23T05:41:22.703Z,15.70
2019-05-23T05:43:51.211Z,15.80
2019-05-23T05:46:20.294Z,15.90
2019-05-23T05:48:49.010Z,16.00
2019-05-23T05:51:18.017Z,16.10
2019-05-23T05:53:47.970Z,16.20
2019-05-23T05:56:16.461Z,16.30
2019-05-23T05:58:45.095Z,16.30
2019-05-23T06:01:14.272Z,16.40
2019-05-23T06:03:43.072Z,16.50
2019-05-23T06:06:28.545Z,16.60
2019-05-23T06:08:58.909Z,16.70
2019-05-23T06:11:28.882Z,16.80
2019-05-23T06:13:57.431Z,16.80
2019-05-23T06:16:26.647Z,17.00
2019-05-23T06:18:55.397Z,17.00
2019-05-23T06:21:25.671Z,17.10
2019-05-23T06:23:54.791Z,17.30
2019-05-23T06:26:23.229Z,17.40
2019-05-23T06:28:51.981Z,17.50
2019-05-23T06:31:21.399Z,17.60
2019-05-23T06:33:53.581Z,17.80
2019-05-23T06:36:22.525Z,17.90
2019-05-23T06:38:51.900Z,18.00
2019-05-23T06:41:21.348Z,18.10
2019-05-23T06:43:51.009Z,18.20
2019-05-23T06:46:19.852Z,18.30
2019-05-23T06:48:48.483Z,18.30
2019-05-23T06:51:17.202Z,18.40
2019-05-23T06:53:46.084Z,18.50
2019-05-23T06:56:14.781Z,18.60
2019-05-23T06:58:43.348Z,18.60
2019-05-23T07:01:12.064Z,18.70
2019-05-23T07:03:43.432Z,18.80
2019-05-23T07:06:13.802Z,18.90
2019-05-23T07:08:42.254Z,19.00
2019-05-23T07:11:10.737Z,19.10
2019-05-23T07:13:40.739Z,19.20
2019-05-23T07:16:09.189Z,19.20
2019-05-23T07:18:38.338Z,19.30
2019-05-23T07:21:09.087Z,19.40
2019-05-23T07:23:37.912Z,19.50
2019-05-23T07:26:06.439Z,19.50
2019-05-23T07:28:35.903Z,19.60
2019-05-23T07:31:05.267Z,19.70
2019-05-23T07:33:33.777Z,19.70
2019-05-23T07:36:02.963Z,19.80
2019-05-23T07:38:31.418Z,19.90
2019-05-23T07:41:00.657Z,19.90
2019-05-23T07:43:29.509Z,20.00
2019-05-23T07:46:00.369Z,20.10
2019-05-23T07:48:29.309Z,20.20
2019-05-23T07:50:57.982Z,20.30
2019-05-23T07:53:37.629Z,20.30
2019-05-23T07:56:07.995Z,20.40
2019-05-23T07:58:36.971Z,20.50
2019-05-23T08:01:10.799Z,20.50
2019-05-23T08:03:40.255Z,20.50
2019-05-23T08:06:09.446Z,20.60
2019-05-23T08:08:38.683Z,20.70
2019-05-23T08:11:07.319Z,20.80
2019-05-23T08:13:36.132Z,20.90
2019-05-23T08:16:05.292Z,20.90
2019-05-23T08:18:34.285Z,20.90
2019-05-23T08:21:02.801Z,20.90
2019-05-23T08:23:31.280Z,21.00
2019-05-23T08:26:00.067Z,21.00
2019-05-23T08:28:28.721Z,21.00
2019-05-23T08:30:57.804Z,21.10
2019-05-23T08:33:26.329Z,21.20
2019-05-23T08:35:55.849Z,21.20
2019-05-23T08:38:24.290Z,21.30
2019-05-23T08:40:53.909Z,21.40
2019-05-23T08:43:22.662Z,21.50
2019-05-23T08:45:51.640Z,21.50
2019-05-23T08:48:20.901Z,21.60
2019-05-23T08:50:51.511Z,21.60
2019-05-23T08:53:19.823Z,21.70
2019-05-23T08:55:48.547Z,21.70
2019-05-23T08:58:17.454Z,21.70
2019-05-23T09:00:46.227Z,21.80
2019-05-23T09:03:15.011Z,21.90
2019-05-23T09:05:44.315Z,22.00
2019-05-23T09:08:16.766Z,22.00
2019-05-23T09:10:43.479Z,22.10
2019-05-23T09:13:12.809Z,22.20
2019-05-23T09:15:41.410Z,22.20
2019-05-23T09:18:10.235Z,22.30
2019-05-23T09:20:38.845Z,22.30
2019-05-23T09:23:07.724Z,22.30
2019-05-23T09:25:36.331Z,22.40
2019-05-23T09:28:05.676Z,22.50
2019-05-23T09:30:34.195Z,22.60
2019-05-23T09:33:03.109Z,22.50
2019-05-23T09:35:32.908Z,22.60
2019-05-23T09:38:01.387Z,22.70
2019-05-23T09:40:29.897Z,22.70
2019-05-23T09:42:58.467Z,22.80
2019-05-23T09:45:26.904Z,22.80
2019-05-23T09:47:55.369Z,22.80
2019-05-23T09:50:24.547Z,22.80
2019-05-23T09:52:53.046Z,22.80
2019-05-23T09:55:22.616Z,22.80
2019-05-23T09:57:51.174Z,22.90
2019-05-23T10:00:21.670Z,23.00
2019-05-23T10:02:50.370Z,23.10
2019-05-23T10:05:18.957Z,23.10
2019-05-23T10:07:47.689Z,23.10
2019-05-23T10:10:17.688Z,23.10
2019-05-23T10:12:46.528Z,23.10
2019-05-23T10:15:17.002Z,23.10
2019-05-23T10:17:45.699Z,23.20
2019-05-23T10:20:14.870Z,23.30
2019-05-23T10:22:43.434Z,23.40
2019-05-23T10:25:12.212Z,23.50
2019-05-23T10:27:40.840Z,23.50
2019-05-23T10:30:11.690Z,23.50
2019-05-23T10:32:40.201Z,23.50
2019-05-23T10:35:10.602Z,23.40
2019-05-23T10:37:39.086Z,23.40
2019-05-23T10:40:08.194Z,23.40
2019-05-23T10:42:37.776Z,23.30
2019-05-23T10:45:07.354Z,23.40
2019-05-23T10:47:35.948Z,23.40
2019-05-23T10:50:09.035Z,23.50
2019-05-23T10:52:37.083Z,23.60
2019-05-23T10:55:07.195Z,23.60
2019-05-23T10:57:35.834Z,23.70
2019-05-23T11:00:09.861Z,23.70
2019-05-23T11:02:39.500Z,23.80
2019-05-23T11:05:13.389Z,23.80
2019-05-23T11:07:41.287Z,23.90
2019-05-23T11:10:10.169Z,23.90
2019-05-23T11:12:39.048Z,23.90
2019-05-23T11:15:08.153Z,24.00
2019-05-23T11:17:36.981Z,24.00
2019-05-23T11:20:07.859Z,24.00
2019-05-23T11:22:36.303Z,24.10
2019-05-23T11:25:07.547Z,24.10
2019-05-23T11:27:36.941Z,24.10
2019-05-23T11:30:09.678Z,24.10
2019-05-23T11:32:38.118Z,24.10
2019-05-23T11:35:06.848Z,24.10
2019-05-23T11:37:35.383Z,24.20
2019-05-23T11:40:06.327Z,24.20
2019-05-23T11:42:34.768Z,24.10
2019-05-23T11:45:04.155Z,24.20
2019-05-23T11:47:32.676Z,24.20
2019-05-23T11:50:01.231Z,24.30
2019-05-23T11:52:30.089Z,24.40
2019-05-23T11:54:59.095Z,24.40
2019-05-23T11:57:28.023Z,24.40
2019-05-23T11:59:56.481Z,24.50
2019-05-23T12:02:32.325Z,24.60
2019-05-23T12:05:02.523Z,24.70
2019-05-23T12:07:31.096Z,24.70
2019-05-23T12:09:59.635Z,24.80
2019-05-23T12:12:28.340Z,24.90
2019-05-23T12:14:56.932Z,25.00
2019-05-23T12:17:26.433Z,25.00
2019-05-23T12:19:55.289Z,25.10
2019-05-23T12:22:24.181Z,25.10
2019-05-23T12:24:52.697Z,25.20
2019-05-23T12:27:21.300Z,25.20
2019-05-23T12:29:49.851Z,25.20
2019-05-23T12:32:18.430Z,25.30
2019-05-23T12:35:07.949Z,25.30
2019-05-23T12:37:20.023Z,25.40
2019-05-23T12:39:47.437Z,25.30
2019-05-23T12:42:16.058Z,25.20
2019-05-23T12:44:44.560Z,25.20
2019-05-23T12:47:14.822Z,25.20
2019-05-23T12:49:45.073Z,25.20
2019-05-23T12:52:14.344Z,25.10
2019-05-23T12:54:42.828Z,25.10
2019-05-23T12:57:11.544Z,25.10
2019-05-23T12:59:40.059Z,25.10
2019-05-23T13:02:10.225Z,25.20
2019-05-23T13:04:39.141Z,25.30
2019-05-23T13:07:08.141Z,25.30
2019-05-23T13:09:36.705Z,25.30
2019-05-23T13:12:05.485Z,25.30
2019-05-23T13:14:34.071Z,25.30
2019-05-23T13:17:02.671Z,25.30
2019-05-23T13:19:31.339Z,25.30
2019-05-23T13:22:00.051Z,25.40
2019-05-23T13:24:29.184Z,25.40
2019-05-23T13:26:57.766Z,25.50
2019-05-23T13:29:26.360Z,25.50
2019-05-23T13:31:54.829Z,25.60
2019-05-23T13:34:23.429Z,25.70
2019-05-23T13:36:52.054Z,25.80
2019-05-23T13:39:20.841Z,25.90
2019-05-23T13:41:49.357Z,26.10
2019-05-23T13:44:33.037Z,26.20
2019-05-23T13:46:48.141Z,26.30
2019-05-23T13:49:16.774Z,26.40
2019-05-23T13:51:45.272Z,26.40
2019-05-23T13:54:13.866Z,26.30
2019-05-23T13:56:47.359Z,26.30
2019-05-23T13:59:12.974Z,26.30
2019-05-23T14:01:41.669Z,26.40
2019-05-23T14:04:10.295Z,26.40
2019-05-23T14:06:38.915Z,26.50
2019-05-23T14:09:08.932Z,26.70
2019-05-23T14:11:37.964Z,26.80
2019-05-23T14:14:07.035Z,27.00
2019-05-23T14:16:37.621Z,27.20
2019-05-23T14:19:06.288Z,27.30
2019-05-23T14:21:36.317Z,27.40
2019-05-23T14:24:05.797Z,27.50
2019-05-23T14:26:36.176Z,27.70
2019-05-23T14:29:04.789Z,27.70
2019-05-23T14:31:37.369Z,27.70
2019-05-23T14:34:07.532Z,27.70
2019-05-23T14:36:37.800Z,27.70
2019-05-23T14:39:09.977Z,27.60
2019-05-23T14:41:52.059Z,27.50
2019-05-23T14:44:20.647Z,27.50
2019-05-23T14:46:54.052Z,27.40
2019-05-23T14:49:24.185Z,27.30
2019-05-23T14:52:03.255Z,27.20
2019-05-23T14:54:36.694Z,27.40
2019-05-23T14:57:05.455Z,27.10
2019-05-23T14:59:33.946Z,27.00
2019-05-23T15:02:02.623Z,26.90
2019-05-23T15:04:31.073Z,26.80
2019-05-23T15:06:59.612Z,26.60
2019-05-23T15:09:28.072Z,26.50
2019-05-23T15:11:56.578Z,26.40
2019-05-23T15:14:25.187Z,26.30
2019-05-23T15:16:53.705Z,26.10
2019-05-23T15:19:39.845Z,26.00
2019-05-23T15:21:52.529Z,25.90
2019-05-23T15:24:21.624Z,25.80
2019-05-23T15:26:50.172Z,25.70
2019-05-23T15:29:18.691Z,25.50
2019-05-23T15:32:00.941Z,25.40
2019-05-23T15:34:17.756Z,25.30
2019-05-23T15:36:46.376Z,25.30
2019-05-23T15:39:15.260Z,25.20
2019-05-23T15:41:43.761Z,25.20
2019-05-23T15:44:25.318Z,25.10
2019-05-23T15:46:42.606Z,25.10
2019-05-23T15:49:12.966Z,25.10
2019-05-23T15:51:43.115Z,25.10
2019-05-23T15:54:15.869Z,25.10
2019-05-23T15:56:51.808Z,25.20
2019-05-23T15:59:21.921Z,25.20
2019-05-23T16:01:52.025Z,25.30
2019-05-23T16:04:22.205Z,25.40
2019-05-23T16:06:51.176Z,25.50
2019-05-23T16:09:29.128Z,25.70
2019-05-23T16:11:51.433Z,25.80
2019-05-23T16:14:20.860Z,25.90
2019-05-23T16:16:49.821Z,26.10
2019-05-23T16:19:18.382Z,26.20
2019-05-23T16:21:46.909Z,26.30
2019-05-23T16:24:15.362Z,26.40
2019-05-23T16:26:43.975Z,26.40
2019-05-23T16:29:13.661Z,26.60
2019-05-23T16:31:42.454Z,26.70
2019-05-23T16:34:10.992Z,26.90
2019-05-23T16:36:39.471Z,27.00
2019-05-23T16:39:08.607Z,27.30
2019-05-23T16:41:37.123Z,27.60
2019-05-23T16:44:05.898Z,27.90
2019-05-23T16:46:34.386Z,28.20
2019-05-23T16:49:03.040Z,28.50
2019-05-23T16:51:31.644Z,28.90
2019-05-23T16:54:00.095Z,29.30
2019-05-23T16:56:30.481Z,29.80
2019-05-23T16:59:06.511Z,30.40
2019-05-23T17:01:54.803Z,31.10
2019-05-23T17:04:14.601Z,31.80
2019-05-23T17:06:53.976Z,32.40
2019-05-23T17:09:41.878Z,32.70
2019-05-23T17:12:12.394Z,32.80
2019-05-23T17:14:42.730Z,32.90
2019-05-23T17:17:56.845Z,32.90
2019-05-23T17:20:18.666Z,32.70
2019-05-23T17:22:36.223Z,32.50
2019-05-23T17:25:24.891Z,32.10
2019-05-23T17:27:55.158Z,31.70
2019-05-23T17:30:34.669Z,31.30
2019-05-23T17:33:03.867Z,30.80
2019-05-23T17:35:32.657Z,30.30
2019-05-23T17:38:01.465Z,29.90
2019-05-23T17:40:30.450Z,29.50
2019-05-23T17:42:58.929Z,29.20
2019-05-23T17:45:27.690Z,28.80
2019-05-23T17:47:56.783Z,28.50
2019-05-23T17:50:25.584Z,28.10
2019-05-23T17:52:54.060Z,27.80
2019-05-23T17:55:22.847Z,27.50
2019-05-23T17:57:51.506Z,27.20
2019-05-23T18:00:21.834Z,27.00
2019-05-23T18:02:50.468Z,26.70
2019-05-23T18:05:20.075Z,26.50
2019-05-23T18:07:48.541Z,26.30
2019-05-23T18:10:17.657Z,26.10
2019-05-23T18:12:46.485Z,25.90
2019-05-23T18:15:15.428Z,25.80
2019-05-23T18:17:43.965Z,25.60
2019-05-23T18:20:13.620Z,25.50
2019-05-23T18:22:42.164Z,25.40
2019-05-23T18:25:12.333Z,25.30
2019-05-23T18:27:41.716Z,25.20
2019-05-23T18:30:28.494Z,25.10
2019-05-23T18:32:57.012Z,25.00
2019-05-23T18:35:26.432Z,24.90
2019-05-23T18:37:55.017Z,24.80
2019-05-23T18:40:23.565Z,24.80
2019-05-23T18:42:52.188Z,24.70
2019-05-23T18:45:21.269Z,24.70
2019-05-23T18:47:50.199Z,24.60
2019-05-23T18:50:20.061Z,24.50
2019-05-23T18:52:51.808Z,24.40
2019-05-23T18:55:19.379Z,24.30
2019-05-23T18:57:48.170Z,24.20
2019-05-23T19:00:16.785Z,24.10
2019-05-23T19:02:45.327Z,24.00
2019-05-23T19:05:14.402Z,23.90
2019-05-23T19:07:43.481Z,23.80
2019-05-23T19:10:12.440Z,23.70
2019-05-23T19:12:42.766Z,23.60
2019-05-23T19:15:11.901Z,23.50
2019-05-23T19:17:40.514Z,23.50
2019-05-23T19:20:09.440Z,23.30
2019-05-23T19:22:38.951Z,23.20
2019-05-23T19:25:09.752Z,23.10
2019-05-23T19:27:38.227Z,23.00
2019-05-23T19:30:07.905Z,22.90
2019-05-23T19:32:36.381Z,22.80
2019-05-23T19:35:06.562Z,22.70
2019-05-23T19:37:37.024Z,22.70
2019-05-23T19:40:09.412Z,22.60
2019-05-23T19:42:38.362Z,22.50
2019-05-23T19:45:07.872Z,22.50
2019-05-23T19:47:36.418Z,22.40
2019-05-23T19:50:06.271Z,22.30
2019-05-23T19:52:36.218Z,22.20
2019-05-23T19:55:06.901Z,22.20
2019-05-23T19:57:36.716Z,22.10
2019-05-23T20:00:08.536Z,22.00
2019-05-23T20:02:38.712Z,22.00
2019-05-23T20:05:09.363Z,21.90
2019-05-23T20:07:37.871Z,21.80
2019-05-23T20:10:08.361Z,21.80
2019-05-23T20:12:36.863Z,21.70
2019-05-23T20:15:06.322Z,21.60
2019-05-23T20:17:34.863Z,21.60
2019-05-23T20:20:04.780Z,21.50
2019-05-23T20:22:33.338Z,21.40
2019-05-23T20:25:01.856Z,21.40
2019-05-23T20:27:30.406Z,21.30
2019-05-23T20:29:58.847Z,21.20
2019-05-23T20:32:27.351Z,21.10
2019-05-23T20:34:55.880Z,21.10
2019-05-23T20:37:26.047Z,21.00
2019-05-23T20:39:54.933Z,20.90
2019-05-23T20:42:23.461Z,20.90
2019-05-23T20:44:52.022Z,20.80
2019-05-23T20:47:20.540Z,20.80
2019-05-23T20:49:49.012Z,20.70
2019-05-23T20:52:17.730Z,20.70
2019-05-23T20:54:46.196Z,20.70
2019-05-23T20:57:14.980Z,20.60
2019-05-23T20:59:43.461Z,20.60
2019-05-23T21:02:12.429Z,20.50
2019-05-23T21:04:41.162Z,20.50
2019-05-23T21:07:09.668Z,20.40
2019-05-23T21:09:38.278Z,20.40
2019-05-23T21:12:07.568Z,20.30
2019-05-23T21:14:36.109Z,20.30
2019-05-23T21:17:04.685Z,20.30
2019-05-23T21:19:33.336Z,20.20
2019-05-23T21:22:01.822Z,20.20
2019-05-23T21:24:31.868Z,20.20
2019-05-23T21:27:00.311Z,20.10
2019-05-23T21:29:28.891Z,20.10
2019-05-23T21:31:57.376Z,20.00
2019-05-23T21:34:25.934Z,20.00
2019-05-23T21:36:54.520Z,20.00
2019-05-23T21:39:23.234Z,19.90
2019-05-23T21:41:51.735Z,19.90
2019-05-23T21:44:20.367Z,19.80
2019-05-23T21:46:49.276Z,19.80
2019-05-23T21:49:17.729Z,19.80
2019-05-23T21:51:46.171Z,19.70
2019-05-23T21:54:14.722Z,19.70
2019-05-23T21:56:43.189Z,19.60
2019-05-23T21:59:11.730Z,19.50
2019-05-23T22:01:53.919Z,19.40
2019-05-23T22:04:26.982Z,19.40
2019-05-23T22:06:56.925Z,19.30
2019-05-23T22:09:25.547Z,19.30
2019-05-23T22:11:57.083Z,19.20
2019-05-23T22:14:25.624Z,19.10
2019-05-23T22:16:54.648Z,19.10
2019-05-23T22:19:23.763Z,19.00
2019-05-23T22:21:52.349Z,19.00
2019-05-23T22:24:21.120Z,18.80
2019-05-23T22:26:49.566Z,18.90
2019-05-23T22:29:18.208Z,18.80
2019-05-23T22:31:46.693Z,18.80
2019-05-23T22:34:19.717Z,18.80
2019-05-23T22:36:48.259Z,18.80
2019-05-23T22:39:17.021Z,18.70
2019-05-23T22:41:45.526Z,18.70
2019-05-23T22:44:14.013Z,18.70
2019-05-23T22:46:42.548Z,18.70
2019-05-23T22:49:11.156Z,18.70
2019-05-23T22:51:39.735Z,18.70
2019-05-23T22:54:08.388Z,18.60
2019-05-23T22:56:36.930Z,18.60
2019-05-23T22:59:05.550Z,18.60
2019-05-23T23:01:34.289Z,18.60
2019-05-23T23:04:02.776Z,18.50
2019-05-23T23:06:31.984Z,18.50
2019-05-23T23:09:00.475Z,18.50
2019-05-23T23:11:29.008Z,18.40
2019-05-23T23:13:57.450Z,18.40
2019-05-23T23:16:26.001Z,18.40
2019-05-23T23:18:54.524Z,18.40
2019-05-23T23:21:23.072Z,18.40
2019-05-23T23:23:51.509Z,18.40
2019-05-23T23:26:19.985Z,18.40
2019-05-23T23:28:48.454Z,18.30
2019-05-23T23:31:16.971Z,18.30
2019-05-23T23:33:45.493Z,18.30
2019-05-23T23:36:14.176Z,18.30
2019-05-23T23:38:42.608Z,18.20
2019-05-23T23:41:11.085Z,18.30
2019-05-23T23:43:56.142Z,18.20
2019-05-23T23:46:28.164Z,18.20
2019-05-23T23:49:14.952Z,18.20
2019-05-23T23:52:01.452Z,18.10
2019-05-23T23:54:47.794Z,18.10
2019-05-23T23:57:34.572Z,18.00
